createdAt,value
2019-04-30T00:00:11.592Z,13.09
2019-04-30T00:01:17.109Z,13.16
2019-04-30T00:02:11.559Z,13.13
2019-04-30T00:03:15.367Z,13.14
2019-04-30T00:04:11.526Z,13.19
2019-04-30T00:05:17.198Z,13.21
2019-04-30T00:06:11.490Z,13.19
2019-04-30T00:07:15.482Z,13.09
2019-04-30T00:08:11.451Z,13.13
2019-04-30T00:09:15.221Z,13.11
2019-04-30T00:10:11.422Z,13.11
2019-04-30T00:11:15.992Z,13.11
2019-04-30T00:12:11.391Z,13.19
2019-04-30T00:13:17.487Z,13.16
2019-04-30T00:14:11.352Z,13.16
2019-04-30T00:15:17.857Z,13.02
2019-04-30T00:16:11.311Z,12.99
2019-04-30T00:17:15.183Z,13.01
2019-04-30T00:18:11.279Z,12.99
2019-04-30T00:19:15.184Z,12.96
2019-04-30T00:20:11.245Z,12.99
2019-04-30T00:21:15.152Z,13.02
2019-04-30T00:22:11.208Z,13.01
2019-04-30T00:23:11.186Z,13.02
2019-04-30T00:24:11.171Z,12.96
2019-04-30T00:25:11.161Z,13.09
2019-04-30T00:26:11.143Z,13.08
2019-04-30T00:27:11.443Z,12.99
2019-04-30T00:28:11.100Z,13.11
2019-04-30T00:29:11.082Z,13.08
2019-04-30T00:30:11.064Z,13.04
2019-04-30T00:31:11.046Z,12.99
2019-04-30T00:32:11.247Z,13.05
2019-04-30T00:33:15.274Z,13.04
2019-04-30T00:34:15.135Z,13.04
2019-04-30T00:35:11.813Z,13.08
2019-04-30T00:36:10.978Z,13.04
2019-04-30T00:37:13.872Z,12.99
2019-04-30T00:38:10.924Z,13.02
2019-04-30T00:39:13.280Z,13.04
2019-04-30T00:40:10.887Z,13.05
2019-04-30T00:41:10.869Z,13.02
2019-04-30T00:42:10.859Z,13.04
2019-04-30T00:43:10.835Z,12.99
2019-04-30T00:44:10.816Z,13.04
2019-04-30T00:45:10.798Z,12.99
2019-04-30T00:46:10.784Z,12.98
2019-04-30T00:47:10.771Z,12.95
2019-04-30T00:48:10.745Z,12.95
2019-04-30T00:49:16.179Z,12.93
2019-04-30T00:50:10.711Z,12.90
2019-04-30T00:51:17.668Z,12.96
2019-04-30T00:52:10.676Z,12.93
2019-04-30T00:53:12.540Z,12.95
2019-04-30T00:54:10.641Z,12.95
2019-04-30T00:55:10.958Z,12.98
2019-04-30T00:56:10.606Z,12.99
2019-04-30T00:57:10.591Z,12.98
2019-04-30T00:58:10.901Z,12.91
2019-04-30T01:00:10.740Z,12.95
2019-04-30T01:02:10.498Z,12.87
2019-04-30T01:03:10.484Z,13.01
2019-04-30T01:04:10.464Z,12.98
2019-04-30T01:05:10.446Z,12.93
2019-04-30T01:06:10.430Z,12.90
2019-04-30T01:07:10.415Z,12.90
2019-04-30T01:08:10.394Z,12.91
2019-04-30T01:09:10.382Z,12.87
2019-04-30T01:10:10.362Z,12.98
2019-04-30T01:11:10.340Z,12.95
2019-04-30T01:12:10.326Z,12.90
2019-04-30T01:13:11.888Z,12.98
2019-04-30T01:14:10.289Z,12.91
2019-04-30T01:15:11.079Z,12.90
2019-04-30T01:16:10.252Z,12.88
2019-04-30T01:17:12.267Z,12.83
2019-04-30T01:18:10.223Z,12.77
2019-04-30T01:19:26.588Z,12.81
2019-04-30T01:20:10.188Z,12.77
2019-04-30T01:21:11.346Z,12.84
2019-04-30T01:22:10.153Z,12.86
2019-04-30T01:23:11.318Z,12.86
2019-04-30T01:24:10.114Z,12.87
2019-04-30T01:25:13.470Z,12.90
2019-04-30T01:26:10.079Z,12.87
2019-04-30T01:27:10.726Z,12.88
2019-04-30T01:28:10.747Z,12.87
2019-04-30T01:29:10.326Z,12.91
2019-04-30T01:30:13.396Z,12.91
2019-04-30T01:31:09.989Z,12.93
2019-04-30T01:32:16.764Z,12.99
2019-04-30T01:33:09.948Z,12.88
2019-04-30T01:34:13.892Z,12.88
2019-04-30T01:35:09.912Z,12.86
2019-04-30T01:36:13.361Z,12.91
2019-04-30T01:37:09.878Z,12.91
2019-04-30T01:38:12.748Z,12.81
2019-04-30T01:39:09.846Z,12.80
2019-04-30T01:40:13.536Z,12.79
2019-04-30T01:41:09.812Z,12.77
2019-04-30T01:42:11.386Z,12.87
2019-04-30T01:43:09.773Z,12.84
2019-04-30T01:44:12.073Z,12.81
2019-04-30T01:45:09.736Z,12.87
2019-04-30T01:46:13.855Z,12.88
2019-04-30T01:47:09.701Z,12.86
2019-04-30T01:48:12.802Z,12.80
2019-04-30T01:49:09.664Z,12.73
2019-04-30T01:50:09.646Z,12.86
2019-04-30T01:51:13.423Z,12.80
2019-04-30T01:52:09.644Z,12.77
2019-04-30T01:53:13.082Z,12.79
2019-04-30T01:54:09.575Z,12.73
2019-04-30T01:55:09.561Z,12.73
2019-04-30T01:56:09.543Z,12.69
2019-04-30T01:57:10.887Z,12.63
2019-04-30T01:58:09.503Z,12.68
2019-04-30T01:59:09.486Z,12.69
2019-04-30T02:00:09.782Z,12.68
2019-04-30T02:01:09.450Z,12.72
2019-04-30T02:02:09.433Z,12.66
2019-04-30T02:03:11.225Z,12.73
2019-04-30T02:04:09.397Z,12.71
2019-04-30T02:05:09.388Z,12.63
2019-04-30T02:06:11.500Z,12.73
2019-04-30T02:07:09.344Z,12.73
2019-04-30T02:08:09.325Z,12.76
2019-04-30T02:09:09.331Z,12.77
2019-04-30T02:10:09.302Z,12.76
2019-04-30T02:11:09.273Z,12.77
2019-04-30T02:12:09.438Z,12.73
2019-04-30T02:13:09.240Z,12.76
2019-04-30T02:14:09.225Z,12.76
2019-04-30T02:15:09.584Z,12.77
2019-04-30T02:16:09.183Z,12.76
2019-04-30T02:17:09.445Z,12.77
2019-04-30T02:18:09.152Z,12.81
2019-04-30T02:19:09.252Z,12.77
2019-04-30T02:20:09.114Z,12.76
2019-04-30T02:21:11.466Z,12.76
2019-04-30T02:22:09.497Z,12.80
2019-04-30T02:23:09.725Z,12.69
2019-04-30T02:24:11.155Z,12.76
2019-04-30T02:25:09.620Z,12.79
2019-04-30T02:26:09.008Z,12.77
2019-04-30T02:27:09.209Z,12.76
2019-04-30T02:28:09.014Z,12.72
2019-04-30T02:29:09.220Z,12.65
2019-04-30T02:30:11.218Z,12.77
2019-04-30T02:31:09.342Z,12.73
2019-04-30T02:32:10.125Z,12.65
2019-04-30T02:33:09.577Z,12.68
2019-04-30T02:34:10.190Z,12.65
2019-04-30T02:35:09.604Z,12.58
2019-04-30T02:36:10.295Z,12.53
2019-04-30T02:37:09.700Z,12.58
2019-04-30T02:38:10.065Z,12.54
2019-04-30T02:39:11.069Z,12.43
2019-04-30T02:40:10.077Z,12.36
2019-04-30T02:41:09.883Z,12.33
2019-04-30T02:42:09.617Z,12.33
2019-04-30T02:43:09.276Z,12.28
2019-04-30T02:44:09.662Z,12.35
2019-04-30T02:45:10.266Z,12.33
2019-04-30T02:46:09.707Z,12.29
2019-04-30T02:47:10.142Z,12.35
2019-04-30T02:48:11.461Z,12.30
2019-04-30T02:49:10.645Z,12.36
2019-04-30T02:50:15.603Z,12.23
2019-04-30T02:51:10.121Z,12.17
2019-04-30T02:52:09.238Z,12.25
2019-04-30T02:53:09.738Z,12.26
2019-04-30T02:54:09.825Z,12.26
2019-04-30T02:55:09.426Z,12.23
2019-04-30T02:56:09.921Z,12.18
2019-04-30T02:57:08.449Z,12.21
2019-04-30T02:58:09.639Z,12.15
2019-04-30T02:59:10.405Z,12.21
2019-04-30T03:00:10.021Z,12.17
2019-04-30T03:01:10.279Z,12.18
2019-04-30T03:02:11.496Z,12.08
2019-04-30T03:03:10.234Z,12.11
2019-04-30T03:04:09.808Z,12.11
2019-04-30T03:05:12.924Z,12.17
2019-04-30T03:06:08.293Z,12.17
2019-04-30T03:07:09.792Z,12.08
2019-04-30T03:08:09.679Z,12.05
2019-04-30T03:09:10.445Z,12.04
2019-04-30T03:10:10.142Z,12.17
2019-04-30T03:11:09.774Z,12.15
2019-04-30T03:12:08.670Z,12.17
2019-04-30T03:13:09.792Z,12.08
2019-04-30T03:14:10.257Z,12.22
2019-04-30T03:15:09.944Z,12.22
2019-04-30T03:16:09.479Z,12.18
2019-04-30T03:17:10.273Z,12.23
2019-04-30T03:18:09.852Z,12.25
2019-04-30T03:19:09.897Z,12.25
2019-04-30T03:20:10.693Z,12.29
2019-04-30T03:21:09.804Z,12.23
2019-04-30T03:22:10.210Z,12.22
2019-04-30T03:23:09.917Z,12.28
2019-04-30T03:24:10.454Z,12.33
2019-04-30T03:25:09.441Z,12.33
2019-04-30T03:26:09.700Z,12.30
2019-04-30T03:27:09.688Z,12.30
2019-04-30T03:28:09.750Z,12.28
2019-04-30T03:29:10.748Z,12.28
2019-04-30T03:30:11.629Z,12.32
2019-04-30T03:31:11.895Z,12.23
2019-04-30T03:32:12.442Z,12.30
2019-04-30T03:33:12.235Z,12.30
2019-04-30T03:34:16.972Z,12.30
2019-04-30T03:35:12.212Z,12.29
2019-04-30T03:36:12.013Z,12.30
2019-04-30T03:37:09.966Z,12.30
2019-04-30T03:38:09.652Z,12.33
2019-04-30T03:39:10.412Z,12.28
2019-04-30T03:40:12.772Z,12.22
2019-04-30T03:41:09.757Z,12.26
2019-04-30T03:42:09.938Z,12.28
2019-04-30T03:43:09.953Z,12.30
2019-04-30T03:44:20.387Z,12.26
2019-04-30T03:45:09.968Z,12.23
2019-04-30T03:46:10.088Z,12.07
2019-04-30T03:47:10.597Z,12.08
2019-04-30T03:48:10.093Z,12.14
2019-04-30T03:49:12.565Z,11.96
2019-04-30T03:50:09.290Z,12.11
2019-04-30T03:51:10.353Z,12.04
2019-04-30T03:52:12.503Z,11.97
2019-04-30T03:53:10.229Z,12.03
2019-04-30T03:54:10.179Z,11.97
2019-04-30T03:55:09.217Z,11.93
2019-04-30T03:56:09.493Z,11.96
2019-04-30T03:57:10.424Z,12.00
2019-04-30T03:58:09.249Z,12.03
2019-04-30T03:59:10.103Z,11.95
2019-04-30T04:00:09.386Z,11.96
2019-04-30T04:01:09.932Z,11.96
2019-04-30T04:02:09.429Z,11.88
2019-04-30T04:03:09.543Z,11.85
2019-04-30T04:04:10.023Z,11.85
2019-04-30T04:05:10.076Z,11.89
2019-04-30T04:06:09.420Z,11.73
2019-04-30T04:07:07.175Z,11.73
2019-04-30T04:08:09.413Z,11.76
2019-04-30T04:09:10.121Z,11.71
2019-04-30T04:10:09.600Z,11.74
2019-04-30T04:11:10.014Z,11.69
2019-04-30T04:12:11.846Z,11.69
2019-04-30T04:13:07.063Z,11.74
2019-04-30T04:14:08.861Z,11.73
2019-04-30T04:15:07.031Z,11.71
2019-04-30T04:16:09.506Z,11.70
2019-04-30T04:17:06.992Z,11.74
2019-04-30T04:18:06.973Z,11.66
2019-04-30T04:19:09.516Z,11.62
2019-04-30T04:20:06.948Z,11.59
2019-04-30T04:21:15.381Z,11.55
2019-04-30T04:22:06.903Z,11.58
2019-04-30T04:23:09.502Z,11.55
2019-04-30T04:24:06.862Z,11.48
2019-04-30T04:25:12.772Z,11.46
2019-04-30T04:26:09.233Z,11.54
2019-04-30T04:27:09.565Z,11.52
2019-04-30T04:28:06.789Z,11.58
2019-04-30T04:29:12.037Z,11.48
2019-04-30T04:30:06.750Z,11.43
2019-04-30T04:31:09.463Z,11.52
2019-04-30T04:32:06.717Z,11.48
2019-04-30T04:33:06.695Z,11.49
2019-04-30T04:34:09.180Z,11.49
2019-04-30T04:35:06.661Z,11.51
2019-04-30T04:36:09.046Z,11.52
2019-04-30T04:37:06.625Z,11.41
2019-04-30T04:38:06.630Z,11.46
2019-04-30T04:39:06.591Z,11.45
2019-04-30T04:40:09.101Z,11.45
2019-04-30T04:41:06.550Z,11.55
2019-04-30T04:42:06.538Z,11.49
2019-04-30T04:43:06.514Z,11.49
2019-04-30T04:44:06.496Z,11.55
2019-04-30T04:45:06.474Z,11.52
2019-04-30T04:46:09.131Z,11.58
2019-04-30T04:47:06.438Z,11.61
2019-04-30T04:48:06.421Z,11.54
2019-04-30T04:49:08.891Z,11.51
2019-04-30T04:50:06.388Z,11.61
2019-04-30T04:51:06.370Z,11.58
2019-04-30T04:52:06.345Z,11.58
2019-04-30T04:53:08.909Z,11.62
2019-04-30T04:54:06.316Z,11.54
2019-04-30T04:55:06.288Z,11.62
2019-04-30T04:56:06.273Z,11.64
2019-04-30T04:57:15.019Z,11.66
2019-04-30T04:58:06.248Z,11.70
2019-04-30T04:59:06.224Z,11.66
2019-04-30T05:00:07.504Z,11.62
2019-04-30T05:01:06.181Z,11.71
2019-04-30T05:02:06.165Z,11.74
2019-04-30T05:03:06.146Z,11.70
2019-04-30T05:04:06.125Z,11.76
2019-04-30T05:05:06.110Z,11.76
2019-04-30T05:06:06.090Z,11.69
2019-04-30T05:07:06.071Z,11.69
2019-04-30T05:08:06.054Z,11.74
2019-04-30T05:09:06.031Z,11.76
2019-04-30T05:10:06.013Z,11.74
2019-04-30T05:11:06.015Z,11.74
2019-04-30T05:12:05.983Z,11.69
2019-04-30T05:13:05.992Z,11.84
2019-04-30T05:14:05.941Z,11.89
2019-04-30T05:15:05.921Z,11.87
2019-04-30T05:16:05.910Z,11.88
2019-04-30T05:17:05.886Z,11.88
2019-04-30T05:18:05.872Z,11.97
2019-04-30T05:19:05.851Z,11.97
2019-04-30T05:20:05.836Z,11.97
2019-04-30T05:21:05.812Z,12.07
2019-04-30T05:22:05.796Z,12.03
2019-04-30T05:23:05.788Z,11.99
2019-04-30T05:24:05.759Z,12.11
2019-04-30T05:25:05.741Z,12.15
2019-04-30T05:26:05.730Z,12.17
2019-04-30T05:27:05.709Z,12.17
2019-04-30T05:28:05.692Z,12.21
2019-04-30T05:29:05.672Z,12.26
2019-04-30T05:30:05.652Z,12.26
2019-04-30T05:31:05.641Z,12.25
2019-04-30T05:32:05.625Z,12.30
2019-04-30T05:33:05.608Z,12.18
2019-04-30T05:34:06.462Z,12.28
2019-04-30T05:35:05.564Z,12.26
2019-04-30T05:36:05.543Z,12.33
2019-04-30T05:37:05.529Z,12.32
2019-04-30T05:38:05.508Z,12.35
2019-04-30T05:39:05.497Z,12.43
2019-04-30T05:40:05.490Z,12.41
2019-04-30T05:41:05.458Z,12.53
2019-04-30T05:42:05.465Z,12.48
2019-04-30T05:43:05.423Z,12.46
2019-04-30T05:44:05.413Z,12.61
2019-04-30T05:45:05.387Z,12.63
2019-04-30T05:46:05.367Z,12.55
2019-04-30T05:47:05.351Z,12.65
2019-04-30T05:48:05.339Z,12.71
2019-04-30T05:49:05.317Z,12.66
2019-04-30T05:50:05.300Z,12.77
2019-04-30T05:51:05.280Z,12.73
2019-04-30T05:52:05.265Z,12.79
2019-04-30T05:53:05.244Z,12.88
2019-04-30T05:54:05.228Z,12.90
2019-04-30T05:55:05.210Z,12.96
2019-04-30T05:56:05.194Z,12.95
2019-04-30T05:57:05.173Z,12.91
2019-04-30T05:58:05.155Z,12.73
2019-04-30T05:59:05.136Z,12.72
2019-04-30T06:00:05.121Z,12.69
2019-04-30T06:01:05.108Z,12.71
2019-04-30T06:02:05.087Z,12.79
2019-04-30T06:03:05.070Z,12.63
2019-04-30T06:04:05.049Z,12.68
2019-04-30T06:05:05.031Z,12.77
2019-04-30T06:06:05.016Z,12.76
2019-04-30T06:07:04.997Z,12.76
2019-04-30T06:08:04.980Z,12.68
2019-04-30T06:09:08.038Z,12.61
2019-04-30T06:10:04.950Z,12.50
2019-04-30T06:11:04.927Z,12.46
2019-04-30T06:12:04.911Z,12.46
2019-04-30T06:13:04.897Z,12.63
2019-04-30T06:14:04.876Z,12.62
2019-04-30T06:15:04.858Z,12.71
2019-04-30T06:16:04.849Z,12.73
2019-04-30T06:17:04.823Z,12.91
2019-04-30T06:18:12.909Z,12.99
2019-04-30T06:19:04.791Z,13.04
2019-04-30T06:20:17.455Z,13.20
2019-04-30T06:21:04.757Z,13.11
2019-04-30T06:22:07.901Z,13.27
2019-04-30T06:23:04.719Z,13.29
2019-04-30T06:24:04.710Z,13.30
2019-04-30T06:25:04.687Z,13.38
2019-04-30T06:26:09.736Z,13.32
2019-04-30T06:27:04.650Z,13.40
2019-04-30T06:28:04.632Z,13.14
2019-04-30T06:29:04.615Z,13.23
2019-04-30T06:30:04.603Z,13.20
2019-04-30T06:31:04.581Z,13.21
2019-04-30T06:32:04.564Z,13.21
2019-04-30T06:33:04.552Z,13.29
2019-04-30T06:34:04.532Z,13.39
2019-04-30T06:35:04.519Z,13.36
2019-04-30T06:36:04.503Z,13.38
2019-04-30T06:37:04.480Z,13.42
2019-04-30T06:38:04.464Z,13.47
2019-04-30T06:39:04.448Z,13.53
2019-04-30T06:40:04.434Z,13.51
2019-04-30T06:41:04.412Z,13.51
2019-04-30T06:42:08.837Z,13.55
2019-04-30T06:43:04.380Z,13.49
2019-04-30T06:44:04.375Z,13.45
2019-04-30T06:45:04.347Z,13.45
2019-04-30T06:46:04.334Z,13.30
2019-04-30T06:47:04.317Z,13.26
2019-04-30T06:48:04.298Z,13.27
2019-04-30T06:49:04.289Z,13.35
2019-04-30T06:50:04.261Z,13.35
2019-04-30T06:51:04.254Z,13.24
2019-04-30T06:52:04.228Z,13.32
2019-04-30T06:53:04.214Z,13.40
2019-04-30T06:54:04.196Z,13.40
2019-04-30T06:55:04.193Z,13.54
2019-04-30T06:56:04.162Z,13.64
2019-04-30T06:57:04.147Z,13.63
2019-04-30T06:58:14.169Z,13.61
2019-04-30T06:59:04.121Z,13.68
2019-04-30T07:00:04.109Z,13.61
2019-04-30T07:01:04.076Z,13.65
2019-04-30T07:02:04.071Z,13.64
2019-04-30T07:03:04.045Z,13.73
2019-04-30T07:04:04.032Z,13.47
2019-04-30T07:05:04.011Z,13.53
2019-04-30T07:06:03.995Z,13.60
2019-04-30T07:07:03.980Z,13.60
2019-04-30T07:08:09.191Z,13.63
2019-04-30T07:09:03.955Z,13.63
2019-04-30T07:10:03.927Z,13.82
2019-04-30T07:11:08.601Z,13.82
2019-04-30T07:12:03.995Z,13.90
2019-04-30T07:13:03.904Z,13.90
2019-04-30T07:14:03.863Z,14.00
2019-04-30T07:15:03.852Z,14.09
2019-04-30T07:16:03.840Z,14.16
2019-04-30T07:17:03.818Z,14.19
2019-04-30T07:18:03.803Z,14.23
2019-04-30T07:19:03.791Z,14.38
2019-04-30T07:20:03.773Z,14.34
2019-04-30T07:21:03.764Z,14.61
2019-04-30T07:22:03.748Z,14.70
2019-04-30T07:23:03.736Z,14.66
2019-04-30T07:24:03.710Z,14.82
2019-04-30T07:25:03.697Z,15.04
2019-04-30T07:26:03.697Z,15.10
2019-04-30T07:27:03.669Z,15.22
2019-04-30T07:28:03.655Z,15.33
2019-04-30T07:29:03.650Z,15.45
2019-04-30T07:30:03.627Z,15.62
2019-04-30T07:31:11.389Z,15.90
2019-04-30T07:32:03.602Z,15.90
2019-04-30T07:33:03.600Z,15.90
2019-04-30T07:34:03.574Z,16.24
2019-04-30T07:35:03.563Z,16.61
2019-04-30T07:36:03.551Z,17.01
2019-04-30T07:37:14.415Z,17.57
2019-04-30T07:38:04.892Z,17.78
2019-04-30T07:39:03.520Z,18.36
2019-04-30T07:40:03.520Z,18.74
2019-04-30T07:41:03.497Z,18.56
2019-04-30T07:42:03.493Z,18.75
2019-04-30T07:43:03.479Z,18.74
2019-04-30T07:44:03.472Z,18.60
2019-04-30T07:45:03.467Z,18.48
2019-04-30T07:46:03.457Z,17.90
2019-04-30T07:47:03.498Z,17.28
2019-04-30T07:48:03.436Z,17.20
2019-04-30T07:49:03.420Z,17.10
2019-04-30T07:50:03.410Z,17.46
2019-04-30T07:51:03.425Z,17.37
2019-04-30T07:52:04.190Z,17.01
2019-04-30T07:53:06.400Z,17.25
2019-04-30T07:54:03.371Z,16.98
2019-04-30T07:55:03.376Z,16.88
2019-04-30T07:56:21.036Z,16.87
2019-04-30T07:57:03.373Z,16.79
2019-04-30T07:58:03.339Z,16.67
2019-04-30T07:59:03.321Z,16.62
2019-04-30T08:00:03.308Z,16.57
2019-04-30T08:01:03.330Z,16.59
2019-04-30T08:02:10.866Z,16.46
2019-04-30T08:03:03.279Z,16.55
2019-04-30T08:04:03.262Z,17.17
2019-04-30T08:05:03.256Z,16.98
2019-04-30T08:06:03.314Z,17.57
2019-04-30T08:07:03.230Z,18.31
2019-04-30T08:08:17.777Z,19.09
2019-04-30T08:09:03.335Z,19.59
2019-04-30T08:10:03.198Z,19.17
2019-04-30T08:11:03.185Z,18.75
2019-04-30T08:12:03.246Z,18.58
2019-04-30T08:13:10.379Z,18.34
2019-04-30T08:14:03.408Z,18.27
2019-04-30T08:15:03.146Z,18.30
2019-04-30T08:16:03.138Z,19.26
2019-04-30T08:17:03.124Z,19.96
2019-04-30T08:18:05.865Z,20.97
2019-04-30T08:19:03.117Z,21.25
2019-04-30T08:20:03.098Z,21.66
2019-04-30T08:21:03.090Z,21.96
2019-04-30T08:22:03.089Z,22.56
2019-04-30T08:23:13.307Z,22.86
2019-04-30T08:24:03.068Z,22.74
2019-04-30T08:25:03.057Z,22.88
2019-04-30T08:26:03.054Z,23.29
2019-04-30T08:27:03.047Z,22.96
2019-04-30T08:28:03.038Z,22.96
2019-04-30T08:29:03.035Z,23.23
2019-04-30T08:30:03.028Z,23.03
2019-04-30T08:31:03.024Z,22.73
2019-04-30T08:32:03.019Z,22.86
2019-04-30T08:33:03.007Z,23.08
2019-04-30T08:34:03.012Z,22.58
2019-04-30T08:35:03.000Z,23.10
2019-04-30T08:36:03.013Z,23.84
2019-04-30T08:37:12.844Z,23.86
2019-04-30T08:38:02.987Z,23.97
2019-04-30T08:39:02.993Z,23.73
2019-04-30T08:40:03.543Z,23.91
2019-04-30T08:41:02.975Z,23.84
2019-04-30T08:42:02.997Z,24.06
2019-04-30T08:43:02.983Z,24.33
2019-04-30T08:44:02.963Z,24.53
2019-04-30T08:45:02.957Z,25.04
2019-04-30T08:46:02.962Z,25.19
2019-04-30T08:47:02.951Z,25.48
2019-04-30T08:48:02.996Z,25.66
2019-04-30T08:49:02.950Z,26.08
2019-04-30T08:50:04.058Z,26.19
2019-04-30T08:51:02.938Z,26.10
2019-04-30T08:52:02.951Z,26.01
2019-04-30T08:54:03.440Z,25.93
2019-04-30T08:55:13.368Z,26.04
2019-04-30T08:56:03.141Z,26.16
2019-04-30T08:57:02.923Z,26.12
2019-04-30T08:58:09.835Z,25.96
2019-04-30T09:00:03.240Z,26.11
2019-04-30T09:01:02.915Z,26.36
2019-04-30T09:02:15.284Z,26.49
2019-04-30T09:03:02.907Z,26.63
2019-04-30T09:04:02.909Z,26.56
2019-04-30T09:05:02.903Z,26.31
2019-04-30T09:06:02.898Z,26.48
2019-04-30T09:07:02.897Z,26.65
2019-04-30T09:08:02.896Z,27.01
2019-04-30T09:09:02.890Z,26.79
2019-04-30T09:10:04.795Z,27.01
2019-04-30T09:11:02.888Z,26.93
2019-04-30T09:12:02.896Z,27.20
2019-04-30T09:13:02.928Z,27.44
2019-04-30T09:14:02.899Z,27.52
2019-04-30T09:15:02.884Z,27.66
2019-04-30T09:16:02.872Z,27.78
2019-04-30T09:17:02.866Z,27.34
2019-04-30T09:18:06.018Z,26.97
2019-04-30T09:19:02.867Z,26.98
2019-04-30T09:20:02.871Z,27.27
2019-04-30T09:21:06.236Z,27.63
2019-04-30T09:22:02.860Z,27.27
2019-04-30T09:23:02.853Z,27.16
2019-04-30T09:24:02.858Z,27.42
2019-04-30T09:25:02.847Z,27.61
2019-04-30T09:26:02.843Z,27.76
2019-04-30T09:27:02.840Z,27.52
2019-04-30T09:28:04.469Z,27.60
2019-04-30T09:29:02.836Z,27.45
2019-04-30T09:30:02.832Z,27.80
2019-04-30T09:31:02.827Z,27.69
2019-04-30T09:32:02.824Z,27.94
2019-04-30T09:33:02.819Z,28.06
2019-04-30T09:34:14.283Z,28.30
2019-04-30T09:35:02.810Z,28.38
2019-04-30T09:36:02.805Z,28.30
2019-04-30T09:37:02.797Z,28.43
2019-04-30T09:38:02.800Z,28.49
2019-04-30T09:39:02.818Z,28.07
2019-04-30T09:40:14.783Z,27.95
2019-04-30T09:41:02.781Z,28.03
2019-04-30T09:42:02.780Z,28.03
2019-04-30T09:43:02.769Z,28.24
2019-04-30T09:44:02.766Z,28.28
2019-04-30T09:45:02.759Z,28.47
2019-04-30T09:46:15.003Z,28.32
2019-04-30T09:47:02.751Z,28.20
2019-04-30T09:48:02.746Z,28.20
2019-04-30T09:49:02.740Z,28.30
2019-04-30T09:50:02.736Z,28.20
2019-04-30T09:51:03.105Z,28.09
2019-04-30T09:52:02.725Z,28.00
2019-04-30T09:53:02.976Z,28.01
2019-04-30T09:54:03.768Z,28.09
2019-04-30T09:55:03.078Z,27.76
2019-04-30T09:56:02.697Z,27.60
2019-04-30T09:57:02.689Z,27.27
2019-04-30T09:58:14.275Z,27.38
2019-04-30T09:59:02.681Z,27.61
2019-04-30T10:00:02.675Z,27.68
2019-04-30T10:01:02.665Z,27.08
2019-04-30T10:02:02.661Z,27.23
2019-04-30T10:03:02.997Z,27.08
2019-04-30T10:04:02.980Z,27.03
2019-04-30T10:05:03.184Z,27.15
2019-04-30T10:06:02.635Z,27.10
2019-04-30T10:07:02.643Z,27.41
2019-04-30T10:08:02.626Z,27.00
2019-04-30T10:09:02.615Z,26.89
2019-04-30T10:10:02.604Z,26.93
2019-04-30T10:11:02.598Z,26.90
2019-04-30T10:12:02.588Z,27.00
2019-04-30T10:13:02.588Z,26.88
2019-04-30T10:14:02.573Z,26.88
2019-04-30T10:15:02.565Z,27.07
2019-04-30T10:16:02.557Z,27.03
2019-04-30T10:17:02.549Z,26.61
2019-04-30T10:18:02.543Z,26.46
2019-04-30T10:19:02.551Z,26.42
2019-04-30T10:20:02.528Z,26.48
2019-04-30T10:21:02.517Z,26.28
2019-04-30T10:22:02.515Z,26.27
2019-04-30T10:23:02.503Z,26.41
2019-04-30T10:24:12.537Z,26.41
2019-04-30T10:25:02.485Z,26.34
2019-04-30T10:26:02.493Z,26.23
2019-04-30T10:27:02.501Z,26.05
2019-04-30T10:28:02.465Z,26.05
2019-04-30T10:29:02.454Z,25.93
2019-04-30T10:30:02.457Z,25.98
2019-04-30T10:31:02.437Z,25.86
2019-04-30T10:32:02.433Z,25.64
2019-04-30T10:33:02.420Z,25.77
2019-04-30T10:34:02.418Z,25.77
2019-04-30T10:35:02.406Z,25.41
2019-04-30T10:36:02.390Z,25.15
2019-04-30T10:37:02.934Z,25.12
2019-04-30T10:38:02.376Z,25.19
2019-04-30T10:39:02.368Z,24.90
2019-04-30T10:40:02.358Z,24.93
2019-04-30T10:41:02.349Z,24.90
2019-04-30T10:42:02.337Z,24.86
2019-04-30T10:43:02.352Z,24.93
2019-04-30T10:44:02.321Z,24.94
2019-04-30T10:45:02.316Z,24.76
2019-04-30T10:46:02.309Z,24.76
2019-04-30T10:47:02.293Z,24.90
2019-04-30T10:48:02.285Z,24.96
2019-04-30T10:49:02.279Z,24.97
2019-04-30T10:50:02.272Z,25.01
2019-04-30T10:51:02.268Z,24.65
2019-04-30T10:52:02.251Z,24.55
2019-04-30T10:53:02.239Z,24.00
2019-04-30T10:54:02.229Z,24.13
2019-04-30T10:55:04.442Z,24.33
2019-04-30T10:56:02.212Z,24.51
2019-04-30T10:57:02.203Z,24.56
2019-04-30T10:58:02.194Z,24.84
2019-04-30T10:59:02.193Z,24.93
2019-04-30T11:00:02.176Z,24.34
2019-04-30T11:01:02.176Z,24.29
2019-04-30T11:02:02.159Z,24.55
2019-04-30T11:03:02.147Z,24.74
2019-04-30T11:04:02.142Z,24.71
2019-04-30T11:05:02.136Z,24.78
2019-04-30T11:06:02.123Z,24.63
2019-04-30T11:07:02.114Z,24.79
2019-04-30T11:08:02.115Z,24.65
2019-04-30T11:09:02.099Z,24.82
2019-04-30T11:10:02.087Z,24.81
2019-04-30T11:11:02.075Z,24.81
2019-04-30T11:12:03.120Z,24.41
2019-04-30T11:13:02.062Z,23.94
2019-04-30T11:14:02.049Z,24.11
2019-04-30T11:15:02.039Z,24.18
2019-04-30T11:16:12.182Z,24.33
2019-04-30T11:17:02.386Z,24.55
2019-04-30T11:18:02.258Z,24.62
2019-04-30T11:19:02.160Z,24.75
2019-04-30T11:20:02.306Z,24.94
2019-04-30T11:21:02.132Z,24.99
2019-04-30T11:22:02.243Z,25.15
2019-04-30T11:23:13.885Z,25.22
2019-04-30T11:24:02.013Z,25.14
2019-04-30T11:25:02.929Z,24.90
2019-04-30T11:26:02.724Z,24.86
2019-04-30T11:27:02.527Z,24.90
2019-04-30T11:28:02.405Z,24.94
2019-04-30T11:29:02.089Z,24.86
2019-04-30T11:30:04.085Z,24.93
2019-04-30T11:31:02.118Z,24.78
2019-04-30T11:32:02.079Z,24.62
2019-04-30T11:33:02.057Z,24.68
2019-04-30T11:34:01.865Z,24.66
2019-04-30T11:35:01.866Z,24.82
2019-04-30T11:36:04.588Z,24.91
2019-04-30T11:37:01.840Z,24.93
2019-04-30T11:38:01.834Z,25.00
2019-04-30T11:39:01.820Z,24.99
2019-04-30T11:40:01.815Z,25.27
2019-04-30T11:41:01.805Z,25.12
2019-04-30T11:42:01.793Z,24.90
2019-04-30T11:43:01.792Z,24.78
2019-04-30T11:44:01.791Z,24.65
2019-04-30T11:45:01.767Z,24.71
2019-04-30T11:46:01.756Z,24.48
2019-04-30T11:47:01.755Z,24.48
2019-04-30T11:48:01.744Z,24.66
2019-04-30T11:49:01.735Z,24.63
2019-04-30T11:50:01.724Z,24.36
2019-04-30T11:51:01.714Z,24.40
2019-04-30T11:52:01.712Z,24.68
2019-04-30T11:53:19.737Z,24.85
2019-04-30T11:54:01.683Z,24.81
2019-04-30T11:55:01.678Z,24.81
2019-04-30T11:56:01.667Z,24.89
2019-04-30T11:57:01.657Z,24.96
2019-04-30T11:58:01.653Z,24.97
2019-04-30T11:59:01.639Z,24.97
2019-04-30T12:00:01.663Z,24.65
2019-04-30T12:01:01.623Z,24.79
2019-04-30T12:02:01.617Z,24.76
2019-04-30T12:03:01.605Z,24.79
2019-04-30T12:04:01.593Z,24.93
2019-04-30T12:05:01.583Z,24.91
2019-04-30T12:06:01.571Z,24.89
2019-04-30T12:07:01.569Z,25.03
2019-04-30T12:08:01.555Z,24.99
2019-04-30T12:09:01.549Z,25.19
2019-04-30T12:10:01.545Z,25.30
2019-04-30T12:11:01.527Z,25.41
2019-04-30T12:12:01.520Z,25.46
2019-04-30T12:13:01.509Z,25.46
2019-04-30T12:14:01.503Z,25.48
2019-04-30T12:15:02.864Z,25.01
2019-04-30T12:16:01.491Z,25.06
2019-04-30T12:17:01.479Z,24.85
2019-04-30T12:18:01.466Z,24.62
2019-04-30T12:19:01.454Z,24.37
2019-04-30T12:20:01.451Z,24.38
2019-04-30T12:21:01.437Z,24.48
2019-04-30T12:22:01.435Z,24.74
2019-04-30T12:23:01.427Z,24.93
2019-04-30T12:24:01.416Z,24.99
2019-04-30T12:25:03.253Z,24.91
2019-04-30T12:26:02.921Z,25.01
2019-04-30T12:27:01.385Z,24.91
2019-04-30T12:28:01.373Z,24.99
2019-04-30T12:29:01.366Z,25.19
2019-04-30T12:30:01.356Z,25.18
2019-04-30T12:31:01.346Z,24.99
2019-04-30T12:32:01.345Z,25.14
2019-04-30T12:33:01.328Z,25.12
2019-04-30T12:34:01.320Z,24.94
2019-04-30T12:35:01.311Z,24.51
2019-04-30T12:36:01.300Z,24.29
2019-04-30T12:37:01.292Z,24.18
2019-04-30T12:38:01.287Z,24.03
2019-04-30T12:39:01.295Z,23.73
2019-04-30T12:40:01.288Z,23.92
2019-04-30T12:41:01.260Z,24.07
2019-04-30T12:42:02.246Z,24.31
2019-04-30T12:43:01.238Z,24.18
2019-04-30T12:44:01.229Z,24.21
2019-04-30T12:45:01.219Z,24.25
2019-04-30T12:46:03.400Z,24.36
2019-04-30T12:47:01.200Z,24.25
2019-04-30T12:48:01.195Z,24.16
2019-04-30T12:49:01.182Z,24.25
2019-04-30T12:50:01.169Z,24.33
2019-04-30T12:51:01.164Z,24.44
2019-04-30T12:52:01.152Z,24.43
2019-04-30T12:53:01.142Z,24.26
2019-04-30T12:54:01.142Z,24.43
2019-04-30T12:55:01.135Z,24.56
2019-04-30T12:56:01.124Z,24.65